CheckWX is a tool to help pilots better visualize weather data.  It is not intended as a substitute for an official pre-flight weather briefing.

01:28:19 UTC

KFYM METAR
Fayetteville Municipal Airport
Fayetteville, Tennessee, USA
Current

33 mins ago

KFYM 200055Z AUTO 20006KT 10SM CLR 29/20 A3006 RMK A01
Observed
Aug-20 @ 00:55 UTC
Wind
  • 200° at 6 KTS
Visibility
10 SM
Flight Rules
VFR
Cloud Levels
  • Clear skies
Temperature
29°C / 84°F
Dewpoint
20°C / 68°F
Heat Index
31°C / 87°F
Humidity
58%
Altimeter
30.06" Hg
Pressure
1017.92 hPa
Previous

53 mins ago

KFYM 200035Z AUTO 17005KT 10SM CLR 28/22 A3005 RMK A01
Observed
Aug-20 @ 00:35 UTC
Wind
  • 170° at 5 KTS
Visibility
10 SM
Flight Rules
VFR
Cloud Levels
  • Clear skies
Temperature
28°C / 82°F
Dewpoint
22°C / 72°F
Heat Index
30°C / 86°F
Humidity
70%
Altimeter
30.05" Hg
Pressure
1017.62 hPa
Previous

2 hours ago

KFYM 192355Z AUTO 08003KT 10SM CLR 30/22 A3004 RMK A01
Observed
Aug-19 @ 23:55 UTC
Wind
  • 080° at 3 KTS
Visibility
10 SM
Flight Rules
VFR
Cloud Levels
  • Clear skies
Temperature
30°C / 86°F
Dewpoint
22°C / 72°F
Heat Index
33°C / 92°F
Humidity
62%
Altimeter
30.04" Hg
Pressure
1017.32 hPa